Terminal Aerodrome Forecast
Issued by NWS Charleston, WV

Current Version | Previous Version | Text Only | Print | Product List | Glossary Off
Versions: 1 2 3 4 5 6 7 8 9 10 11 12 13 14 15 16 17 18 19 20 21 22 23 24

000
FTUS41 KRLX 262102 AAA
TAFPKB
TAF AMD
KPKB 262102Z 2621/2718 28009G16KT 4SM -SHRA VCTS BKN040CB BKN080
      TEMPO 2621/2623 31012G22KT 3/4SM +TSRA BR OVC020CB
     FM262300 27007KT 3SM SHRA VCTS BKN024CB
     FM270200 36004KT 4SM -SHRA BR BKN015
     FM270600 02004KT 2SM -DZ OVC008
     FM271300 02005KT 5SM BR OVC012
     FM271500 02004KT P6SM BKN020=

USA.gov is the U.S. government's official web portal to all federal, state and local government web resources and services.